createdAt,value
2019-05-15T00:00:19.278Z,99.90
2019-05-15T00:02:48.242Z,99.90
2019-05-15T00:05:18.823Z,99.90
2019-05-15T00:07:48.361Z,99.90
2019-05-15T00:10:18.131Z,99.90
2019-05-15T00:12:48.610Z,99.90
2019-05-15T00:15:18.207Z,99.90
2019-05-15T00:17:48.563Z,99.90
2019-05-15T00:20:20.059Z,99.90
2019-05-15T00:22:48.417Z,99.90
2019-05-15T00:25:18.849Z,99.90
2019-05-15T00:27:49.175Z,99.90
2019-05-15T00:30:18.468Z,99.90
2019-05-15T00:32:48.731Z,99.90
2019-05-15T00:35:18.406Z,99.90
2019-05-15T00:37:49.314Z,99.90
2019-05-15T00:40:18.365Z,99.90
2019-05-15T00:42:48.820Z,99.90
2019-05-15T00:45:18.746Z,99.90
2019-05-15T00:47:48.721Z,99.90
2019-05-15T00:50:18.343Z,99.90
2019-05-15T00:52:48.532Z,99.90
2019-05-15T00:55:19.033Z,99.90
2019-05-15T00:57:48.559Z,99.90
2019-05-15T01:00:23.005Z,99.90
2019-05-15T01:02:51.843Z,99.90
2019-05-15T01:05:20.570Z,99.90
2019-05-15T01:07:49.388Z,99.90
2019-05-15T01:10:19.370Z,99.90
2019-05-15T01:12:48.667Z,99.90
2019-05-15T01:15:18.383Z,99.90
2019-05-15T01:17:49.174Z,99.90
2019-05-15T01:20:18.913Z,99.90
2019-05-15T01:22:48.545Z,99.90
2019-05-15T01:25:18.588Z,99.90
2019-05-15T01:27:48.957Z,99.90
2019-05-15T01:30:18.379Z,99.90
2019-05-15T01:32:48.527Z,99.90
2019-05-15T01:35:18.008Z,99.90
2019-05-15T01:37:48.346Z,99.90
2019-05-15T01:40:18.334Z,99.90
2019-05-15T01:42:47.142Z,99.90
2019-05-15T01:45:16.284Z,99.90
2019-05-15T01:47:45.132Z,99.90
2019-05-15T01:50:14.248Z,99.90
2019-05-15T01:52:42.970Z,99.90
2019-05-15T01:55:11.806Z,99.90
2019-05-15T01:57:40.644Z,99.90
2019-05-15T02:00:09.937Z,99.90
2019-05-15T02:02:39.303Z,99.90
2019-05-15T02:05:09.339Z,99.90
2019-05-15T02:07:39.162Z,99.90
2019-05-15T02:10:29.186Z,99.90
2019-05-15T02:12:58.776Z,99.90
2019-05-15T02:15:28.573Z,99.90
2019-05-15T02:17:58.778Z,99.90
2019-05-15T02:20:29.169Z,99.90
2019-05-15T02:22:59.066Z,99.90
2019-05-15T02:25:28.140Z,99.90
2019-05-15T02:27:58.741Z,99.90
2019-05-15T02:30:30.027Z,99.90
2019-05-15T02:32:59.094Z,99.90
2019-05-15T02:35:29.546Z,99.90
2019-05-15T02:37:59.771Z,99.90
2019-05-15T02:40:29.575Z,99.90
2019-05-15T02:42:59.182Z,99.90
2019-05-15T02:45:30.132Z,99.90
2019-05-15T02:47:59.694Z,99.90
2019-05-15T02:50:29.270Z,99.90
2019-05-15T02:53:00.542Z,99.90
2019-05-15T02:55:29.650Z,99.90
2019-05-15T02:57:59.143Z,99.90
2019-05-15T03:00:37.925Z,99.90
2019-05-15T03:03:00.134Z,99.90
2019-05-15T03:05:29.582Z,99.90
2019-05-15T03:07:59.286Z,99.90
2019-05-15T03:10:29.731Z,99.90
2019-05-15T03:13:00.156Z,99.90
2019-05-15T03:15:29.309Z,99.90
2019-05-15T03:18:00.484Z,99.90
2019-05-15T03:20:29.754Z,99.90
2019-05-15T03:22:59.711Z,99.90
2019-05-15T03:25:29.772Z,99.90
2019-05-15T03:27:59.526Z,99.90
2019-05-15T03:30:32.463Z,99.90
2019-05-15T03:33:03.980Z,99.90
2019-05-15T03:35:32.859Z,99.90
2019-05-15T03:38:00.062Z,99.90
2019-05-15T03:40:29.913Z,99.90
2019-05-15T03:42:59.454Z,99.90
2019-05-15T03:45:29.708Z,99.90
2019-05-15T03:47:59.572Z,99.90
2019-05-15T03:50:29.103Z,99.90
2019-05-15T03:52:58.788Z,99.90
2019-05-15T03:55:29.582Z,99.90
2019-05-15T03:57:59.160Z,99.90
2019-05-15T04:00:30.181Z,99.90
2019-05-15T04:02:59.204Z,99.90
2019-05-15T04:05:29.382Z,99.90
2019-05-15T04:07:59.839Z,99.90
2019-05-15T04:10:29.050Z,99.90
2019-05-15T04:13:00.083Z,99.90
2019-05-15T04:15:30.144Z,99.90
2019-05-15T04:18:00.392Z,99.90
2019-05-15T04:20:29.670Z,99.90
2019-05-15T04:23:00.478Z,99.90
2019-05-15T04:25:29.984Z,99.90
2019-05-15T04:28:00.874Z,99.90
2019-05-15T04:30:30.873Z,99.90
2019-05-15T04:32:59.938Z,99.90
2019-05-15T04:35:29.076Z,99.90
2019-05-15T04:37:59.693Z,99.90
2019-05-15T04:40:29.907Z,99.90
2019-05-15T04:42:59.412Z,99.90
2019-05-15T04:45:34.389Z,99.90
2019-05-15T04:47:58.922Z,99.90
2019-05-15T04:50:28.727Z,99.90
2019-05-15T04:52:59.271Z,99.90
2019-05-15T04:55:28.940Z,99.90
2019-05-15T04:57:59.281Z,99.90
2019-05-15T05:00:49.997Z,99.90
2019-05-15T05:03:20.266Z,99.90
2019-05-15T05:05:50.427Z,99.90
2019-05-15T05:08:20.413Z,99.90
2019-05-15T05:10:50.304Z,99.90
2019-05-15T05:13:19.927Z,99.90
2019-05-15T05:15:50.308Z,99.90
2019-05-15T05:18:19.879Z,99.90
2019-05-15T05:20:48.909Z,99.90
2019-05-15T05:23:19.135Z,99.90
2019-05-15T05:25:49.133Z,99.90
2019-05-15T05:28:19.232Z,99.90
2019-05-15T05:30:48.734Z,99.90
2019-05-15T05:33:18.552Z,99.90
2019-05-15T05:35:48.563Z,99.90
2019-05-15T05:38:19.080Z,99.90
2019-05-15T05:40:49.753Z,99.90
2019-05-15T05:43:19.625Z,99.90
2019-05-15T05:45:49.386Z,99.90
2019-05-15T05:48:19.190Z,99.90
2019-05-15T05:50:49.703Z,99.90
2019-05-15T05:53:21.097Z,99.90
2019-05-15T05:55:52.610Z,99.90
2019-05-15T05:58:19.985Z,99.90
2019-05-15T06:00:49.456Z,99.90
2019-05-15T06:03:19.632Z,99.90
2019-05-15T06:05:49.443Z,99.90
2019-05-15T06:08:19.813Z,99.90
2019-05-15T06:10:49.553Z,99.90
2019-05-15T06:13:19.010Z,99.90
2019-05-15T06:15:48.725Z,99.90
2019-05-15T06:18:19.515Z,99.90
2019-05-15T06:20:49.468Z,99.90
2019-05-15T06:23:23.420Z,99.90
2019-05-15T06:25:49.989Z,99.90
2019-05-15T06:28:20.172Z,99.90
2019-05-15T06:30:49.346Z,99.90
2019-05-15T06:33:19.011Z,99.90
2019-05-15T06:35:48.851Z,99.90
2019-05-15T06:38:19.280Z,99.90
2019-05-15T06:40:49.719Z,99.90
2019-05-15T06:43:19.470Z,99.90
2019-05-15T06:45:49.277Z,99.90
2019-05-15T06:48:18.801Z,99.90
2019-05-15T06:50:49.048Z,99.90
2019-05-15T06:53:19.298Z,99.90
2019-05-15T06:55:49.111Z,99.90
2019-05-15T06:58:19.135Z,99.90
2019-05-15T07:00:49.247Z,99.90
2019-05-15T07:03:25.206Z,99.90
2019-05-15T07:05:51.092Z,99.90
2019-05-15T07:08:21.605Z,99.90
2019-05-15T07:10:54.764Z,99.90
2019-05-15T07:13:24.965Z,99.90
2019-05-15T07:15:53.830Z,99.90
2019-05-15T07:18:22.558Z,99.90
2019-05-15T07:20:51.406Z,99.90
2019-05-15T07:23:20.297Z,99.90
2019-05-15T07:25:50.358Z,99.90
2019-05-15T07:28:19.351Z,99.90
2019-05-15T07:30:49.506Z,99.90
2019-05-15T07:33:27.989Z,99.90
2019-05-15T07:35:49.603Z,99.90
2019-05-15T07:38:19.183Z,99.90
2019-05-15T07:40:57.126Z,99.90
2019-05-15T07:43:18.493Z,99.90
2019-05-15T07:45:53.978Z,99.90
2019-05-15T07:48:18.876Z,99.90
2019-05-15T07:50:49.793Z,99.90
2019-05-15T07:53:19.812Z,99.90
2019-05-15T07:55:50.326Z,99.90
2019-05-15T07:58:21.522Z,99.90
2019-05-15T08:00:50.107Z,99.90
2019-05-15T08:03:18.857Z,99.90
2019-05-15T08:05:58.691Z,99.90
2019-05-15T08:08:18.631Z,99.90
2019-05-15T08:10:48.847Z,99.90
2019-05-15T08:13:18.686Z,99.90
2019-05-15T08:15:48.690Z,99.90
2019-05-15T08:18:18.425Z,99.90
2019-05-15T08:20:49.000Z,99.90
2019-05-15T08:23:19.172Z,99.90
2019-05-15T08:25:48.648Z,99.90
2019-05-15T08:28:19.170Z,99.90
2019-05-15T08:30:49.339Z,99.90
2019-05-15T08:33:18.721Z,99.90
2019-05-15T08:35:51.413Z,99.90
2019-05-15T08:38:25.020Z,99.90
2019-05-15T08:40:55.351Z,99.90
2019-05-15T08:43:24.378Z,99.90
2019-05-15T08:45:58.687Z,99.90
2019-05-15T08:48:27.849Z,99.90
2019-05-15T08:50:57.948Z,99.90
2019-05-15T08:53:28.430Z,99.90
2019-05-15T08:55:58.764Z,99.90
2019-05-15T08:58:29.215Z,99.90
2019-05-15T09:00:58.653Z,99.90
2019-05-15T09:03:28.632Z,99.90
2019-05-15T09:05:59.050Z,99.90
2019-05-15T09:08:29.239Z,99.90
2019-05-15T09:10:58.765Z,99.90
2019-05-15T09:13:29.255Z,99.90
2019-05-15T09:15:58.919Z,99.90
2019-05-15T09:18:28.374Z,99.90
2019-05-15T09:20:59.432Z,99.90
2019-05-15T09:23:28.918Z,99.90
2019-05-15T09:25:58.470Z,99.90
2019-05-15T09:28:29.574Z,99.90
2019-05-15T09:31:01.955Z,99.90
2019-05-15T09:33:30.703Z,99.90
2019-05-15T09:35:59.456Z,99.90
2019-05-15T09:38:29.380Z,99.90
2019-05-15T09:40:58.665Z,99.90
2019-05-15T09:43:28.499Z,99.90
2019-05-15T09:45:58.284Z,99.90
2019-05-15T09:48:28.649Z,99.90
2019-05-15T09:50:58.748Z,99.90
2019-05-15T09:53:28.962Z,99.90
2019-05-15T09:55:59.979Z,99.90
2019-05-15T09:58:30.300Z,99.90
2019-05-15T10:00:58.676Z,99.90
2019-05-15T10:03:28.232Z,99.90
2019-05-15T10:05:57.149Z,99.90
2019-05-15T10:08:29.312Z,99.90
2019-05-15T10:10:59.386Z,99.90
2019-05-15T10:13:28.964Z,99.90
2019-05-15T10:15:58.620Z,99.70
2019-05-15T10:18:28.973Z,99.20
2019-05-15T10:20:58.255Z,98.50
2019-05-15T10:23:29.114Z,98.10
2019-05-15T10:25:58.928Z,97.90
2019-05-15T10:28:29.285Z,98.50
2019-05-15T10:31:00.103Z,98.30
2019-05-15T10:33:29.587Z,97.00
2019-05-15T10:35:59.163Z,96.70
2019-05-15T10:38:28.607Z,96.30
2019-05-15T10:41:08.065Z,96.00
2019-05-15T10:43:29.335Z,97.00
2019-05-15T10:45:58.746Z,96.30
2019-05-15T10:48:29.224Z,97.80
2019-05-15T10:51:01.793Z,96.00
2019-05-15T10:53:29.695Z,96.10
2019-05-15T10:55:59.656Z,97.40
2019-05-15T10:58:29.068Z,96.50
2019-05-15T11:01:02.469Z,95.90
2019-05-15T11:03:30.424Z,95.70
2019-05-15T11:05:59.241Z,96.00
2019-05-15T11:08:29.146Z,96.10
2019-05-15T11:10:58.510Z,96.60
2019-05-15T11:13:28.854Z,95.90
2019-05-15T11:15:57.911Z,96.40
2019-05-15T11:18:30.442Z,95.70
2019-05-15T11:20:59.347Z,95.70
2019-05-15T11:23:29.314Z,96.30
2019-05-15T11:25:58.288Z,95.80
2019-05-15T11:28:31.637Z,95.50
2019-05-15T11:30:59.457Z,95.40
2019-05-15T11:33:29.290Z,96.30
2019-05-15T11:36:05.541Z,99.30
2019-05-15T11:38:29.123Z,99.90
2019-05-15T11:40:58.044Z,99.90
2019-05-15T11:43:29.169Z,99.90
2019-05-15T11:45:58.912Z,99.90
2019-05-15T11:48:29.784Z,99.90
2019-05-15T11:50:58.151Z,99.90
2019-05-15T11:53:28.431Z,99.80
2019-05-15T11:55:59.893Z,99.10
2019-05-15T11:58:28.598Z,98.80
2019-05-15T12:00:57.981Z,99.30
2019-05-15T12:03:29.033Z,99.90
2019-05-15T12:05:59.707Z,99.90
2019-05-15T12:08:29.341Z,99.90
2019-05-15T12:10:59.294Z,99.90
2019-05-15T12:13:28.351Z,99.90
2019-05-15T12:15:58.873Z,99.90
2019-05-15T12:18:28.461Z,99.90
2019-05-15T12:20:59.452Z,99.90
2019-05-15T12:23:29.151Z,99.90
2019-05-15T12:26:00.253Z,99.90
2019-05-15T12:28:29.510Z,99.90
2019-05-15T12:30:59.854Z,99.90
2019-05-15T12:33:29.141Z,99.90
2019-05-15T12:35:58.332Z,99.90
2019-05-15T12:38:28.980Z,99.90
2019-05-15T13:01:14.897Z,99.40
2019-05-15T13:03:32.198Z,99.50
2019-05-15T13:06:00.978Z,99.90
2019-05-15T13:08:29.797Z,99.90
2019-05-15T13:10:58.546Z,99.70
2019-05-15T13:13:28.368Z,99.70
2019-05-15T13:15:58.984Z,99.60
2019-05-15T13:18:28.581Z,99.60
2019-05-15T13:20:59.404Z,99.90
2019-05-15T13:23:28.584Z,99.70
2019-05-15T13:25:59.231Z,99.90
2019-05-15T13:28:29.084Z,99.90
2019-05-15T13:30:59.524Z,99.90
2019-05-15T13:33:28.624Z,99.90
2019-05-15T13:35:58.479Z,99.90
2019-05-15T13:38:28.753Z,99.90
2019-05-15T13:40:59.183Z,99.90
2019-05-15T13:43:28.965Z,99.90
2019-05-15T13:45:58.789Z,99.90
2019-05-15T13:48:29.334Z,99.80
2019-05-15T13:50:59.018Z,98.80
2019-05-15T13:53:28.064Z,98.70
2019-05-15T13:55:56.974Z,98.90
2019-05-15T13:58:28.031Z,98.20
2019-05-15T14:00:58.529Z,98.30
2019-05-15T14:03:28.435Z,97.90
2019-05-15T14:05:58.304Z,98.00
2019-05-15T14:08:28.761Z,97.90
2019-05-15T14:10:58.342Z,97.60
2019-05-15T14:13:28.618Z,97.60
2019-05-15T14:15:58.211Z,96.90
2019-05-15T14:18:28.594Z,97.00
2019-05-15T14:20:58.478Z,97.20
2019-05-15T14:23:29.482Z,96.70
2019-05-15T14:25:58.998Z,96.80
2019-05-15T14:28:28.506Z,96.30
2019-05-15T14:30:58.738Z,96.30
2019-05-15T14:33:29.255Z,96.20
2019-05-15T14:35:58.131Z,98.60
2019-05-15T14:38:28.847Z,97.90
2019-05-15T14:40:59.039Z,98.90
2019-05-15T14:43:29.314Z,99.30
2019-05-15T14:45:58.817Z,98.60
2019-05-15T14:48:28.189Z,98.80
2019-05-15T14:50:58.395Z,99.10
2019-05-15T14:53:29.385Z,99.50
2019-05-15T14:56:00.289Z,99.60
2019-05-15T14:58:28.990Z,99.80
2019-05-15T15:01:02.983Z,98.50
2019-05-15T15:03:28.926Z,99.10
2019-05-15T15:05:58.285Z,99.20
2019-05-15T15:08:29.251Z,98.60
2019-05-15T15:10:59.396Z,98.10
2019-05-15T15:13:28.808Z,98.40
2019-05-15T15:15:59.073Z,98.40
2019-05-15T15:18:28.239Z,97.10
2019-05-15T15:20:58.021Z,96.30
2019-05-15T15:23:28.600Z,96.60
2019-05-15T15:25:58.560Z,96.60
2019-05-15T15:28:27.676Z,95.50
2019-05-15T15:30:58.087Z,94.70
2019-05-15T15:33:28.900Z,94.90
2019-05-15T15:35:58.116Z,95.00
2019-05-15T15:38:38.066Z,95.00
2019-05-15T15:41:00.053Z,94.60
2019-05-15T15:43:28.823Z,94.30
2019-05-15T15:45:58.120Z,94.20
2019-05-15T15:48:28.542Z,94.30
2019-05-15T15:50:58.635Z,95.20
2019-05-15T15:53:28.562Z,95.10
2019-05-15T15:55:57.762Z,97.00
2019-05-15T15:58:29.025Z,96.10
2019-05-15T16:00:57.200Z,98.00
2019-05-15T16:03:28.440Z,98.50
2019-05-15T16:05:56.425Z,97.80
2019-05-15T16:08:25.225Z,96.70
2019-05-15T16:10:53.965Z,96.70
2019-05-15T16:13:22.716Z,97.70
2019-05-15T16:15:51.545Z,97.90
2019-05-15T16:18:20.278Z,99.40
2019-05-15T16:20:49.050Z,99.70
2019-05-15T16:23:18.790Z,99.60
2019-05-15T16:25:48.987Z,98.90
2019-05-15T16:28:18.589Z,99.60
2019-05-15T16:30:51.396Z,99.90
2019-05-15T16:33:18.458Z,99.90
2019-05-15T16:35:48.811Z,99.90
2019-05-15T16:38:19.291Z,99.90
2019-05-15T16:40:48.945Z,99.90
2019-05-15T16:43:17.937Z,99.90
2019-05-15T16:45:49.595Z,99.90
2019-05-15T16:48:18.749Z,99.90
2019-05-15T16:50:48.739Z,99.90
2019-05-15T16:53:18.274Z,99.90
2019-05-15T16:55:48.029Z,99.90
2019-05-15T16:58:19.235Z,99.90
2019-05-15T17:00:49.727Z,99.90
2019-05-15T17:03:18.424Z,99.90
2019-05-15T17:05:48.016Z,99.90
2019-05-15T17:08:17.890Z,99.90
2019-05-15T17:10:48.352Z,99.90
2019-05-15T17:13:17.473Z,99.90
2019-05-15T17:15:47.829Z,99.90
2019-05-15T17:18:18.130Z,99.90
2019-05-15T17:20:48.434Z,99.90
2019-05-15T17:23:18.943Z,99.90
2019-05-15T17:25:48.828Z,99.90
2019-05-15T17:28:18.479Z,99.90
2019-05-15T17:30:48.798Z,99.90
2019-05-15T17:33:18.471Z,99.90
2019-05-15T17:35:48.724Z,99.90
2019-05-15T17:38:18.328Z,99.90
2019-05-15T17:40:48.476Z,99.90
2019-05-15T17:43:18.235Z,99.90
2019-05-15T17:45:48.139Z,99.90
2019-05-15T17:48:19.381Z,99.90
2019-05-15T17:50:51.784Z,99.90
2019-05-15T17:53:18.308Z,99.90
2019-05-15T17:55:47.929Z,99.90
2019-05-15T17:58:16.996Z,99.90
2019-05-15T18:00:45.800Z,99.90
2019-05-15T18:03:14.559Z,99.90
2019-05-15T18:05:43.322Z,99.90
2019-05-15T18:08:12.061Z,99.90
2019-05-15T18:10:40.843Z,99.90
2019-05-15T18:13:09.667Z,99.90
2019-05-15T18:15:38.763Z,99.90
2019-05-15T18:18:09.471Z,99.90
2019-05-15T18:20:38.606Z,99.90
2019-05-15T18:23:08.481Z,99.90
2019-05-15T18:25:38.365Z,99.90
2019-05-15T18:28:08.501Z,99.90
2019-05-15T18:30:38.987Z,99.90
2019-05-15T18:33:08.855Z,99.90
2019-05-15T18:35:38.467Z,99.90
2019-05-15T18:38:08.612Z,99.90
2019-05-15T18:40:38.430Z,99.90
2019-05-15T18:43:10.067Z,99.90
2019-05-15T18:45:38.366Z,99.90
2019-05-15T18:48:07.276Z,99.90
2019-05-15T18:50:37.824Z,99.90
2019-05-15T18:53:08.754Z,99.90
2019-05-15T18:55:38.583Z,99.90
2019-05-15T18:58:08.773Z,99.90
2019-05-15T19:00:40.001Z,99.90
2019-05-15T19:03:19.077Z,99.90
2019-05-15T19:05:38.796Z,99.90
2019-05-15T19:08:08.502Z,99.90
2019-05-15T19:10:38.589Z,99.90
2019-05-15T19:13:08.496Z,99.90
2019-05-15T19:15:38.090Z,99.90
2019-05-15T19:18:08.026Z,99.90
2019-05-15T19:20:38.825Z,99.90
2019-05-15T19:23:08.028Z,99.90
2019-05-15T19:25:37.650Z,99.90
2019-05-15T19:28:08.493Z,99.90
2019-05-15T19:30:38.950Z,99.90
2019-05-15T19:33:08.599Z,99.90
2019-05-15T19:35:38.737Z,99.90
2019-05-15T19:38:07.597Z,99.90
2019-05-15T19:40:38.837Z,99.90
2019-05-15T19:43:09.191Z,99.90
2019-05-15T19:45:38.676Z,99.90
2019-05-15T19:48:08.992Z,99.90
2019-05-15T19:50:37.778Z,99.90
2019-05-15T19:53:08.183Z,99.90
2019-05-15T19:55:37.102Z,99.90
2019-05-15T19:58:05.852Z,99.90
2019-05-15T20:00:35.601Z,99.90
2019-05-15T20:03:04.704Z,99.90
2019-05-15T20:05:33.486Z,99.90
2019-05-15T20:08:02.311Z,99.90
2019-05-15T20:10:31.045Z,99.90
2019-05-15T20:13:00.450Z,99.90
2019-05-15T20:15:31.162Z,99.90
2019-05-15T20:17:59.755Z,99.90
2019-05-15T20:20:28.856Z,99.90
2019-05-15T20:22:59.949Z,99.90
2019-05-15T20:25:28.414Z,99.90
2019-05-15T20:27:57.337Z,99.90
2019-05-15T20:30:28.403Z,99.90
2019-05-15T20:32:58.505Z,99.90
2019-05-15T20:35:28.297Z,99.90
2019-05-15T20:37:58.083Z,99.90
2019-05-15T20:40:27.050Z,99.90
2019-05-15T20:42:55.814Z,99.90
2019-05-15T20:45:24.655Z,99.90
2019-05-15T20:47:53.464Z,99.90
2019-05-15T20:50:22.274Z,99.90
2019-05-15T20:52:51.039Z,99.90
2019-05-15T20:55:19.870Z,99.90
2019-05-15T20:57:50.534Z,99.90
2019-05-15T21:00:19.607Z,99.90
2019-05-15T21:02:48.676Z,99.90
2019-05-15T21:05:18.671Z,99.90
2019-05-15T21:07:48.513Z,99.90
2019-05-15T21:10:21.505Z,99.90
2019-05-15T21:12:48.881Z,99.90
2019-05-15T21:15:21.153Z,99.90
2019-05-15T21:17:58.344Z,99.90
2019-05-15T21:20:22.014Z,99.90
2019-05-15T21:22:53.625Z,99.90
2019-05-15T21:25:31.652Z,99.90
2019-05-15T21:28:00.469Z,99.90
2019-05-15T21:30:29.675Z,99.90
2019-05-15T21:32:58.742Z,99.90
2019-05-15T21:35:27.707Z,99.90
2019-05-15T21:37:57.916Z,99.90
2019-05-15T21:40:27.957Z,99.90
2019-05-15T21:42:58.458Z,99.90
2019-05-15T21:45:28.966Z,99.90
2019-05-15T21:47:58.709Z,99.90
2019-05-15T21:50:28.477Z,99.90
2019-05-15T21:52:58.199Z,99.90
2019-05-15T21:55:28.849Z,99.90
2019-05-15T21:57:57.750Z,99.90
2019-05-15T22:00:32.542Z,99.90
2019-05-15T22:03:01.338Z,99.90
2019-05-15T22:05:30.759Z,99.90
2019-05-15T22:07:59.531Z,99.90
2019-05-15T22:10:29.399Z,99.90
2019-05-15T22:12:58.939Z,99.90
2019-05-15T22:15:28.732Z,99.90
2019-05-15T22:18:04.644Z,99.90
2019-05-15T22:20:30.883Z,99.90
2019-05-15T22:22:59.836Z,99.90
2019-05-15T22:25:29.052Z,99.90
2019-05-15T22:27:58.338Z,99.90
2019-05-15T22:30:29.859Z,99.90
2019-05-15T22:32:58.713Z,99.90
2019-05-15T22:35:29.365Z,99.90
2019-05-15T22:37:58.550Z,99.90
2019-05-15T22:40:29.072Z,99.90
2019-05-15T22:42:59.886Z,99.90
2019-05-15T22:45:30.749Z,99.90
2019-05-15T22:47:59.585Z,99.90
2019-05-15T22:50:28.435Z,99.90
2019-05-15T22:52:58.853Z,99.90
2019-05-15T22:55:28.879Z,99.90
2019-05-15T22:57:58.621Z,99.90
2019-05-15T23:00:29.107Z,99.90
2019-05-15T23:02:58.224Z,99.90
2019-05-15T23:05:30.985Z,99.90
2019-05-15T23:07:59.021Z,99.90
2019-05-15T23:10:29.330Z,99.90
2019-05-15T23:12:58.390Z,99.90
2019-05-15T23:15:28.079Z,99.90
2019-05-15T23:17:58.243Z,99.90
2019-05-15T23:20:28.557Z,99.90
2019-05-15T23:22:58.461Z,99.90
2019-05-15T23:25:28.849Z,99.90
2019-05-15T23:27:58.369Z,99.90
2019-05-15T23:30:28.937Z,99.90
2019-05-15T23:32:58.103Z,99.90
2019-05-15T23:35:35.488Z,99.90
2019-05-15T23:37:58.229Z,99.90
2019-05-15T23:40:28.814Z,99.90
2019-05-15T23:42:57.931Z,99.90
2019-05-15T23:45:28.773Z,99.90
2019-05-15T23:47:58.022Z,99.90
2019-05-15T23:50:28.822Z,99.90
2019-05-15T23:52:58.345Z,99.90
2019-05-15T23:55:28.588Z,99.90
2019-05-15T23:57:58.471Z,99.90
